Time;durP1;ratioP1;P1;durP2;ratioP2;P2;SDS_P1;SDS_P2;PMS_P1;PMS_P2;Temp;Humidity;BMP_temperature;BMP_pressure;BME280_temperature;BME280_humidity;BME280_pressure;Samples;Min_cycle;Max_cycle;Signal;HPM_P1;HPM_P2
2021/06/27 00:01:42;;;;;;;3.25;0.90;;;45.60;8.40;;;;;;5050527;28;20182;-64
2021/06/27 00:04:13;;;;;;;2.90;0.70;;;45.50;8.40;;;;;;5054883;28;20422;-65
2021/06/27 00:06:39;;;;;;;3.95;1.05;;;45.40;8.50;;;;;;5055102;28;20541;-65
2021/06/27 00:09:06;;;;;;;3.28;1.15;;;45.50;8.60;;;;;;5056804;28;20079;-69
2021/06/27 00:11:34;;;;;;;2.03;1.08;;;45.40;8.70;;;;;;5058644;28;20101;-67
2021/06/27 00:14:01;;;;;;;3.70;0.90;;;45.20;8.60;;;;;;5057967;28;20186;-66
2021/06/27 00:16:29;;;;;;;13.23;7.43;;;45.20;9.10;;;;;;5055003;28;20082;-67
2021/06/27 00:18:57;;;;;;;2.45;1.83;;;45.40;9.10;;;;;;5056151;28;20112;-67
2021/06/27 00:21:24;;;;;;;1.40;0.75;;;45.30;8.60;;;;;;5054895;28;20069;-65
2021/06/27 00:23:51;;;;;;;4.65;0.90;;;45.10;9.20;;;;;;5061040;28;20148;-66
2021/06/27 00:26:21;;;;;;;3.08;0.90;;;44.90;8.70;;;;;;5055001;28;20631;-66
2021/06/27 00:28:48;;;;;;;5.50;1.10;;;44.90;9.10;;;;;;5057475;28;20082;-66
2021/06/27 00:31:15;;;;;;;3.40;1.27;;;44.90;9.10;;;;;;5054937;28;20542;-66
2021/06/27 00:33:41;;;;;;;6.57;1.65;;;44.90;9.90;;;;;;5053977;28;20142;-65
2021/06/27 00:36:09;;;;;;;4.63;1.45;;;44.90;9.20;;;;;;5058512;28;20066;-67
2021/06/27 00:38:36;;;;;;;2.95;0.95;;;44.80;8.90;;;;;;5058680;28;20077;-65
2021/06/27 00:41:04;;;;;;;5.20;1.00;;;44.70;8.90;;;;;;5054285;28;20457;-65
2021/06/27 00:43:31;;;;;;;4.32;1.15;;;44.60;8.90;;;;;;5056150;28;20744;-65
2021/06/27 00:45:59;;;;;;;1.95;0.93;;;44.50;9.00;;;;;;5053891;28;21559;-66
2021/06/27 00:48:26;;;;;;;5.00;1.00;;;44.40;9.00;;;;;;5053541;28;20518;-66
2021/06/27 00:50:55;;;;;;;4.20;1.10;;;44.40;9.40;;;;;;5056779;28;20514;-66
2021/06/27 00:53:22;;;;;;;5.47;0.93;;;44.30;9.30;;;;;;5058748;28;20098;-65
2021/06/27 00:55:57;;;;;;;3.33;0.90;;;44.20;9.20;;;;;;5057236;28;20081;-65
2021/06/27 00:58:32;;;;;;;4.93;1.13;;;44.20;9.30;;;;;;5055535;28;20139;-66
2021/06/27 01:00:59;;;;;;;3.95;1.00;;;44.20;9.30;;;;;;5056683;28;20076;-66
2021/06/27 01:03:26;;;;;;;3.15;0.90;;;44.00;9.30;;;;;;5054268;28;20079;-65
2021/06/27 01:05:54;;;;;;;6.07;1.30;;;44.00;9.90;;;;;;5060663;28;20169;-65
2021/06/27 01:08:21;;;;;;;3.88;1.10;;;44.00;9.60;;;;;;5055793;28;20155;-66
2021/06/27 01:10:51;;;;;;;5.38;1.20;;;43.80;10.10;;;;;;5058166;28;20096;-67
2021/06/27 01:13:21;;;;;;;6.28;1.30;;;43.80;9.60;;;;;;5063222;28;20120;-66
2021/06/27 01:15:49;;;;;;;4.78;1.30;;;43.80;9.50;;;;;;5055199;28;20081;-66
2021/06/27 01:18:15;;;;;;;2.78;1.10;;;43.70;9.40;;;;;;5056724;28;20105;-65
2021/06/27 01:20:43;;;;;;;2.42;0.85;;;43.70;9.30;;;;;;5050563;28;20068;-66
2021/06/27 01:23:14;;;;;;;4.43;1.25;;;43.60;9.40;;;;;;5057650;28;20073;-66
2021/06/27 01:25:44;;;;;;;4.03;1.20;;;43.50;9.80;;;;;;5051473;28;20070;-66
2021/06/27 01:28:11;;;;;;;7.88;1.33;;;43.50;9.30;;;;;;5054135;28;20549;-65
2021/06/27 01:30:40;;;;;;;4.13;1.27;;;43.30;10.30;;;;;;5060388;28;20124;-66
2021/06/27 01:33:19;;;;;;;5.70;1.23;;;43.20;10.20;;;;;;5053140;28;20085;-66
2021/06/27 01:35:47;;;;;;;5.93;1.05;;;43.10;10.90;;;;;;5053414;28;20077;-66
2021/06/27 01:38:14;;;;;;;2.33;1.00;;;43.00;9.90;;;;;;5056994;28;20082;-66
2021/06/27 01:40:41;;;;;;;1.90;1.13;;;42.90;9.50;;;;;;5061253;28;20077;-66
2021/06/27 01:43:11;;;;;;;2.78;1.30;;;42.80;9.50;;;;;;5052788;28;20088;-65
2021/06/27 01:45:39;;;;;;;4.50;1.05;;;42.70;10.40;;;;;;5053137;28;20534;-66
2021/06/27 01:48:09;;;;;;;5.13;1.20;;;42.60;9.60;;;;;;5056632;28;20084;-64
2021/06/27 01:50:38;;;;;;;3.85;1.30;;;42.50;9.90;;;;;;5057410;28;20078;-66
2021/06/27 01:53:07;;;;;;;3.42;1.20;;;42.40;9.60;;;;;;5056281;28;20089;-66
2021/06/27 01:55:35;;;;;;;1.88;1.05;;;42.30;9.90;;;;;;5054303;28;20081;-66
2021/06/27 01:58:02;;;;;;;8.02;1.08;;;42.30;9.80;;;;;;5056082;28;21283;-66
2021/06/27 02:00:30;;;;;;;3.92;1.17;;;42.10;9.70;;;;;;5059412;28;20535;-66
2021/06/27 02:02:58;;;;;;;4.57;1.50;;;42.10;10.50;;;;;;5060832;28;20085;-66
2021/06/27 02:05:25;;;;;;;6.63;1.23;;;41.90;11.30;;;;;;5061366;28;21598;-66
2021/06/27 02:07:52;;;;;;;8.48;1.50;;;41.80;11.90;;;;;;5043944;28;20093;-67
2021/06/27 02:10:24;;;;;;;10.50;1.42;;;41.60;11.70;;;;;;5063504;28;20419;-66
2021/06/27 02:12:52;;;;;;;5.82;1.10;;;41.50;12.30;;;;;;5064800;28;20419;-66
2021/06/27 02:15:21;;;;;;;8.90;1.40;;;41.40;10.90;;;;;;5059776;28;20192;-65
2021/06/27 02:18:12;;;;;;;12.57;2.30;;;41.20;12.40;;;;;;5065589;28;20077;-67
2021/06/27 02:20:39;;;;;;;5.70;3.00;;;41.00;12.50;;;;;;5060553;28;20116;-66
2021/06/27 02:23:05;;;;;;;6.60;2.28;;;40.90;12.70;;;;;;5065356;28;20081;-66
2021/06/27 02:25:32;;;;;;;12.90;2.50;;;40.80;12.60;;;;;;5060417;28;20089;-66
2021/06/27 02:27:59;;;;;;;7.18;1.75;;;40.60;12.00;;;;;;5062697;28;20073;-66
2021/06/27 02:30:25;;;;;;;6.28;2.60;;;40.60;12.30;;;;;;5062449;28;20092;-66
2021/06/27 02:32:52;;;;;;;9.38;2.65;;;40.40;11.80;;;;;;5059353;28;20105;-66
2021/06/27 02:35:20;;;;;;;8.45;3.00;;;40.30;11.50;;;;;;5062646;28;20257;-66
2021/06/27 02:37:47;;;;;;;21.88;3.53;;;40.30;11.50;;;;;;5061081;28;20089;-66
2021/06/27 02:40:14;;;;;;;11.93;3.35;;;40.20;12.40;;;;;;5054968;28;20130;-66
2021/06/27 02:42:41;;;;;;;12.88;3.50;;;40.10;12.40;;;;;;5078371;28;20386;-67
2021/06/27 02:45:09;;;;;;;18.42;4.13;;;40.00;12.90;;;;;;5059970;28;20072;-67
2021/06/27 02:47:36;;;;;;;15.98;3.58;;;39.80;13.00;;;;;;5060011;28;20611;-64
2021/06/27 02:50:05;;;;;;;17.42;4.57;;;39.70;13.00;;;;;;5060815;28;20082;-64
2021/06/27 02:52:32;;;;;;;18.73;4.35;;;39.60;12.40;;;;;;5055671;28;20098;-65
2021/06/27 02:54:59;;;;;;;18.65;3.28;;;39.50;12.40;;;;;;5060432;28;20160;-65
2021/06/27 02:57:25;;;;;;;28.77;4.10;;;39.40;12.40;;;;;;5061372;28;20069;-65
2021/06/27 02:59:52;;;;;;;44.67;4.45;;;39.30;12.40;;;;;;5059125;28;20406;-64
2021/06/27 03:02:18;;;;;;;41.47;4.38;;;39.30;12.40;;;;;;5057564;28;20156;-67
2021/06/27 03:04:45;;;;;;;30.92;4.43;;;39.30;12.50;;;;;;5059142;28;20123;-64
2021/06/27 03:07:11;;;;;;;34.83;4.13;;;39.30;12.60;;;;;;5059571;28;20084;-65
2021/06/27 03:09:38;;;;;;;27.65;5.97;;;39.30;12.60;;;;;;5060085;28;20152;-64
2021/06/27 03:12:04;;;;;;;32.35;4.85;;;39.20;12.90;;;;;;5058882;28;20085;-65
2021/06/27 03:14:31;;;;;;;40.70;5.80;;;39.20;13.00;;;;;;5041838;28;20581;-66
2021/06/27 03:16:58;;;;;;;29.98;5.70;;;39.10;13.30;;;;;;5055757;28;20522;-64
2021/06/27 03:19:25;;;;;;;38.15;6.03;;;39.10;13.30;;;;;;5057000;28;20080;-66
2021/06/27 03:21:51;;;;;;;59.45;6.20;;;39.10;13.60;;;;;;5057426;28;20163;-66
2021/06/27 03:24:18;;;;;;;41.17;5.47;;;39.00;13.60;;;;;;5057908;28;20069;-65
2021/06/27 03:26:44;;;;;;;47.90;6.82;;;38.90;13.80;;;;;;5058743;28;20108;-65
2021/06/27 03:29:11;;;;;;;46.92;6.13;;;38.80;14.00;;;;;;5057287;28;20109;-65
2021/06/27 03:31:37;;;;;;;41.92;5.43;;;38.70;13.90;;;;;;5060113;28;20153;-66
2021/06/27 03:34:04;;;;;;;47.60;7.15;;;38.70;14.10;;;;;;5062069;28;20101;-63
2021/06/27 03:36:31;;;;;;;45.80;5.28;;;38.60;14.20;;;;;;5057871;28;20092;-64
2021/06/27 03:39:08;;;;;;;36.40;5.22;;;38.50;14.20;;;;;;5057672;28;20073;-63
2021/06/27 03:41:46;;;;;;;44.63;5.30;;;38.40;14.20;;;;;;5041491;28;20089;-64
2021/06/27 03:44:13;;;;;;;38.47;4.78;;;38.30;14.20;;;;;;5062196;28;20065;-63
2021/06/27 03:46:39;;;;;;;43.50;5.75;;;38.20;14.40;;;;;;5058612;28;20080;-64
2021/06/27 03:49:06;;;;;;;41.00;5.72;;;38.10;14.50;;;;;;5057168;28;20541;-63
2021/06/27 03:51:32;;;;;;;31.65;4.05;;;38.00;14.50;;;;;;5059929;28;20085;-64
2021/06/27 03:53:59;;;;;;;44.20;5.68;;;37.90;14.60;;;;;;5057068;28;20101;-63
2021/06/27 03:56:26;;;;;;;46.33;4.80;;;37.90;14.80;;;;;;5059386;28;20069;-63
2021/06/27 03:58:54;;;;;;;32.70;5.10;;;37.80;14.80;;;;;;5054314;28;20116;-62
2021/06/27 04:01:21;;;;;;;48.17;4.88;;;37.70;14.70;;;;;;5055623;28;20113;-62
2021/06/27 04:03:48;;;;;;;36.75;4.90;;;37.70;14.50;;;;;;5054986;28;20076;-63
2021/06/27 04:06:14;;;;;;;33.00;5.60;;;37.60;14.30;;;;;;5060293;28;20065;-64
2021/06/27 04:08:41;;;;;;;40.80;4.68;;;37.60;14.20;;;;;;5059863;28;20165;-64
2021/06/27 04:11:08;;;;;;;37.72;6.20;;;37.60;14.10;;;;;;5054192;28;20076;-65
2021/06/27 04:13:36;;;;;;;31.67;4.57;;;37.50;14.20;;;;;;5060479;28;20124;-64
2021/06/27 04:16:04;;;;;;;33.70;4.65;;;37.50;14.10;;;;;;5059342;28;20078;-63
2021/06/27 04:18:32;;;;;;;39.72;5.32;;;37.50;14.10;;;;;;5059485;28;20073;-64
2021/06/27 04:20:59;;;;;;;36.88;5.28;;;37.40;14.30;;;;;;5058798;28;20073;-63
2021/06/27 04:23:27;;;;;;;42.75;5.28;;;37.40;14.30;;;;;;5060069;28;20081;-62
2021/06/27 04:25:54;;;;;;;36.75;4.68;;;37.30;14.40;;;;;;5051985;28;20070;-64
2021/06/27 04:28:20;;;;;;;47.90;5.40;;;37.30;14.30;;;;;;5056401;28;20155;-64
2021/06/27 04:30:47;;;;;;;33.47;5.72;;;37.30;14.40;;;;;;5054197;28;20066;-63
2021/06/27 04:33:14;;;;;;;29.98;5.28;;;37.30;14.40;;;;;;5056589;28;20510;-64
2021/06/27 04:35:41;;;;;;;33.17;5.28;;;37.20;14.40;;;;;;5058628;28;20082;-63
2021/06/27 04:38:14;;;;;;;20.45;5.53;;;37.20;14.50;;;;;;5057721;28;20085;-63
2021/06/27 04:40:41;;;;;;;34.92;5.05;;;37.10;14.50;;;;;;5060624;28;20107;-63
2021/06/27 04:43:08;;;;;;;29.08;4.88;;;37.20;14.50;;;;;;5057613;28;20519;-64
2021/06/27 04:45:37;;;;;;;27.52;4.20;;;37.10;14.50;;;;;;5057647;28;20077;-63
2021/06/27 04:48:05;;;;;;;23.20;4.70;;;37.10;14.50;;;;;;5056933;28;20079;-64
2021/06/27 04:50:31;;;;;;;25.40;4.75;;;37.10;14.40;;;;;;5061103;28;20533;-65
2021/06/27 04:52:58;;;;;;;27.67;4.53;;;37.00;14.40;;;;;;5053807;28;20603;-64
2021/06/27 04:55:25;;;;;;;16.20;4.32;;;37.00;14.60;;;;;;5054373;28;20531;-64
2021/06/27 04:57:51;;;;;;;34.22;4.88;;;37.00;14.60;;;;;;5052994;28;20101;-65
2021/06/27 05:00:18;;;;;;;31.92;4.60;;;37.00;14.90;;;;;;5037468;28;20153;-65
2021/06/27 05:02:45;;;;;;;29.33;4.85;;;36.90;14.80;;;;;;5053930;28;20446;-63
2021/06/27 05:05:12;;;;;;;38.45;6.15;;;36.90;15.50;;;;;;5061425;28;20080;-64
2021/06/27 05:07:39;;;;;;;24.58;3.90;;;36.80;15.20;;;;;;5059115;28;20077;-63
2021/06/27 05:10:07;;;;;;;31.15;4.80;;;36.70;15.30;;;;;;5056056;28;20544;-64
2021/06/27 05:12:34;;;;;;;24.20;3.90;;;36.60;15.70;;;;;;5054992;28;20120;-65
2021/06/27 05:15:01;;;;;;;28.08;4.68;;;36.50;15.70;;;;;;5055654;28;20115;-65
2021/06/27 05:17:27;;;;;;;24.10;3.53;;;36.40;15.80;;;;;;5052510;28;20165;-66
2021/06/27 05:19:54;;;;;;;35.03;3.78;;;36.40;16.10;;;;;;5061079;28;20082;-64
2021/06/27 05:22:21;;;;;;;19.58;3.25;;;36.30;16.10;;;;;;5054491;28;20070;-64
2021/06/27 05:24:47;;;;;;;26.63;3.97;;;36.30;16.30;;;;;;5053465;28;20074;-64
2021/06/27 05:27:14;;;;;;;28.00;3.80;;;36.30;16.50;;;;;;5057251;28;20138;-64
2021/06/27 05:29:41;;;;;;;23.13;3.72;;;36.20;16.50;;;;;;5051395;28;20165;-63
2021/06/27 05:32:08;;;;;;;25.40;4.32;;;36.10;16.70;;;;;;5055314;28;20093;-64
2021/06/27 05:34:34;;;;;;;18.08;4.18;;;36.10;16.80;;;;;;5044771;28;20454;-63
2021/06/27 05:37:02;;;;;;;19.58;5.10;;;36.00;17.00;;;;;;5055875;28;20070;-63
2021/06/27 05:39:29;;;;;;;36.90;19.60;;;36.00;17.30;;;;;;5053456;28;20077;-64
2021/06/27 05:41:55;;;;;;;22.40;3.83;;;35.90;17.60;;;;;;5055225;28;20102;-64
2021/06/27 05:44:22;;;;;;;20.05;4.20;;;35.80;17.60;;;;;;5056938;28;20084;-64
2021/06/27 05:46:48;;;;;;;27.38;3.65;;;35.70;17.70;;;;;;5053350;28;20070;-65
2021/06/27 05:49:15;;;;;;;21.80;3.63;;;35.60;17.80;;;;;;5055021;28;20073;-65
2021/06/27 05:51:42;;;;;;;24.17;3.85;;;35.60;18.00;;;;;;5055187;28;20100;-64
2021/06/27 05:54:09;;;;;;;22.25;3.78;;;35.60;18.20;;;;;;5052267;28;20096;-63
2021/06/27 05:56:37;;;;;;;22.00;3.35;;;35.50;18.40;;;;;;5050252;28;20152;-64
2021/06/27 05:59:05;;;;;;;32.90;4.03;;;35.50;18.40;;;;;;5055055;28;20530;-64
2021/06/27 06:01:32;;;;;;;25.38;4.15;;;35.40;18.60;;;;;;5052980;28;20535;-63
2021/06/27 06:03:58;;;;;;;23.00;3.80;;;35.40;18.70;;;;;;5053855;28;20077;-64
2021/06/27 06:06:25;;;;;;;17.08;3.80;;;35.40;18.80;;;;;;5054072;28;20070;-65
2021/06/27 06:08:52;;;;;;;17.40;3.03;;;35.30;18.80;;;;;;5053176;28;20081;-63
2021/06/27 06:11:19;;;;;;;22.27;3.00;;;35.20;19.00;;;;;;5054280;28;20081;-63
2021/06/27 06:13:46;;;;;;;16.75;4.00;;;35.10;19.00;;;;;;5053709;28;20485;-64
2021/06/27 06:16:13;;;;;;;12.93;3.00;;;35.10;19.10;;;;;;5050363;28;20073;-63
2021/06/27 06:18:43;;;;;;;15.93;2.75;;;35.00;19.10;;;;;;5053102;28;21292;-63
2021/06/27 06:21:10;;;;;;;16.10;3.30;;;35.00;19.20;;;;;;5055455;28;20161;-63
2021/06/27 06:23:36;;;;;;;22.25;2.92;;;35.00;19.20;;;;;;5054782;28;20542;-64
2021/06/27 06:26:03;;;;;;;33.28;3.40;;;34.90;19.30;;;;;;5054316;28;20081;-63
2021/06/27 06:28:30;;;;;;;34.22;3.75;;;34.90;19.30;;;;;;5050969;28;20447;-62
2021/06/27 06:30:56;;;;;;;14.85;3.05;;;34.80;19.30;;;;;;5053574;28;20080;-63
2021/06/27 06:33:23;;;;;;;24.35;3.58;;;34.80;19.40;;;;;;5051785;28;20101;-64
2021/06/27 06:35:50;;;;;;;17.48;3.25;;;34.70;19.40;;;;;;5034788;28;20074;-64
2021/06/27 06:38:16;;;;;;;21.08;3.70;;;34.60;19.40;;;;;;5053214;28;20074;-63
2021/06/27 06:40:43;;;;;;;19.63;3.42;;;34.70;19.40;;;;;;5052875;28;20077;-64
2021/06/27 06:43:09;;;;;;;19.67;4.03;;;34.70;19.30;;;;;;5055173;28;20540;-62
2021/06/27 06:45:37;;;;;;;26.95;4.57;;;34.60;19.50;;;;;;5053408;28;20095;-65
2021/06/27 06:48:04;;;;;;;28.23;8.55;;;34.60;19.70;;;;;;5053716;28;20082;-65
2021/06/27 06:50:30;;;;;;;25.65;6.30;;;34.60;20.20;;;;;;5056248;28;20069;-67
2021/06/27 06:52:57;;;;;;;24.33;6.60;;;34.50;20.90;;;;;;5056043;28;20097;-64
2021/06/27 06:55:26;;;;;;;26.92;5.60;;;34.50;20.80;;;;;;5057142;28;20077;-66
2021/06/27 06:57:53;;;;;;;31.17;5.93;;;34.40;20.50;;;;;;5051135;28;20100;-65
2021/06/27 07:00:21;;;;;;;25.42;5.82;;;34.40;20.80;;;;;;5056636;28;20148;-65
2021/06/27 07:02:47;;;;;;;17.83;5.28;;;34.30;20.50;;;;;;5055061;28;20531;-67
2021/06/27 07:05:59;;;;;;;24.08;4.07;;;34.60;20.60;;;;;;5110191;27;20457;-62
2021/06/27 07:08:30;;;;;;;16.33;4.30;;;34.60;26.60;;;;;;5111291;28;20081;-63
2021/06/27 07:10:57;;;;;;;23.30;3.88;;;34.50;44.70;;;;;;5105986;28;20051;-64
2021/06/27 07:13:24;;;;;;;17.23;4.65;;;34.50;21.20;;;;;;5112000;27;20096;-62
2021/06/27 07:15:51;;;;;;;19.45;4.78;;;34.60;21.00;;;;;;5105997;28;20172;-63
2021/06/27 07:18:17;;;;;;;23.20;4.88;;;34.50;20.80;;;;;;5109416;28;20072;-64
2021/06/27 07:20:44;;;;;;;29.83;5.60;;;34.50;21.30;;;;;;5108458;28;20142;-64
2021/06/27 07:23:10;;;;;;;29.38;6.10;;;34.50;21.30;;;;;;5110541;28;20076;-63
2021/06/27 07:25:37;;;;;;;15.18;5.53;;;34.30;26.90;;;;;;5106952;28;20191;-64
2021/06/27 07:28:04;;;;;;;30.80;6.20;;;34.50;21.00;;;;;;5107865;28;20069;-64
2021/06/27 07:30:30;;;;;;;28.23;5.72;;;34.50;20.80;;;;;;5107179;28;20171;-62
2021/06/27 07:32:57;;;;;;;19.38;5.10;;;34.50;20.60;;;;;;5108455;28;20069;-63
2021/06/27 07:35:23;;;;;;;28.00;6.10;;;34.40;20.90;;;;;;5110120;28;20068;-64
2021/06/27 07:37:50;;;;;;;20.88;5.93;;;34.40;21.00;;;;;;5109612;28;20080;-63
2021/06/27 07:40:17;;;;;;;25.67;6.45;;;34.30;21.20;;;;;;5109637;28;20074;-64
2021/06/27 07:42:44;;;;;;;24.55;6.22;;;34.20;21.70;;;;;;5109326;27;20077;-63
2021/06/27 07:45:10;;;;;;;37.28;6.53;;;34.20;21.60;;;;;;5114275;28;20128;-64
2021/06/27 07:47:37;;;;;;;25.50;6.43;;;34.10;21.30;;;;;;5109356;28;20080;-64
2021/06/27 07:50:05;;;;;;;35.95;6.53;;;34.00;22.00;;;;;;5109497;28;20517;-62
2021/06/27 07:52:36;;;;;;;34.60;6.93;;;33.90;46.50;;;;;;5111453;28;20551;-64
2021/06/27 07:55:03;;;;;;;27.42;6.13;;;33.90;22.40;;;;;;5113389;28;20051;-64
2021/06/27 07:57:30;;;;;;;29.73;7.00;;;33.90;22.00;;;;;;5108831;28;20084;-62
2021/06/27 07:59:56;;;;;;;23.67;7.20;;;33.90;21.70;;;;;;5107186;28;20072;-64
2021/06/27 08:02:23;;;;;;;34.60;7.43;;;33.90;21.50;;;;;;5111750;28;20072;-64
2021/06/27 08:04:49;;;;;;;24.38;5.70;;;33.90;21.50;;;;;;5107993;27;20119;-62
2021/06/27 08:07:16;;;;;;;34.58;5.72;;;33.90;21.30;;;;;;5109774;28;20075;-63
2021/06/27 08:09:42;;;;;;;24.77;5.95;;;33.80;21.20;;;;;;5110984;28;20075;-63
2021/06/27 08:12:09;;;;;;;26.08;5.32;;;33.80;21.10;;;;;;5111301;28;20083;-63
2021/06/27 08:14:36;;;;;;;17.13;5.30;;;33.80;21.00;;;;;;5108355;27;20076;-64
2021/06/27 08:17:02;;;;;;;25.80;5.78;;;33.80;21.00;;;;;;5094784;28;20647;-62
2021/06/27 08:19:29;;;;;;;24.33;5.47;;;33.80;20.90;;;;;;5091302;28;20065;-61
2021/06/27 08:21:55;;;;;;;36.58;6.05;;;33.80;20.90;;;;;;5091244;28;20560;-63
2021/06/27 08:24:22;;;;;;;31.00;5.88;;;33.70;21.30;;;;;;5096953;28;20092;-64
2021/06/27 08:26:50;;;;;;;35.33;6.13;;;33.70;21.60;;;;;;5095569;28;20118;-64
2021/06/27 08:29:17;;;;;;;31.50;5.50;;;33.60;21.60;;;;;;5092505;28;20453;-65
2021/06/27 08:31:44;;;;;;;31.58;5.95;;;33.50;21.30;;;;;;5098097;28;20068;-63
2021/06/27 08:34:10;;;;;;;24.70;5.57;;;33.50;21.40;;;;;;5096093;28;20100;-64
2021/06/27 08:36:38;;;;;;;31.33;6.15;;;33.50;21.30;;;;;;5093015;28;20547;-64
2021/06/27 08:39:05;;;;;;;22.60;5.03;;;33.40;21.40;;;;;;5093468;28;20133;-64
2021/06/27 08:41:31;;;;;;;36.90;5.30;;;33.40;21.60;;;;;;5094658;28;20589;-63
2021/06/27 08:44:00;;;;;;;25.52;5.57;;;33.30;21.80;;;;;;5093473;28;20131;-65
2021/06/27 08:46:27;;;;;;;28.35;5.45;;;33.30;22.20;;;;;;5088993;28;20139;-64
2021/06/27 08:48:54;;;;;;;28.63;5.38;;;33.30;22.00;;;;;;5091578;28;20134;-62
2021/06/27 08:51:21;;;;;;;26.92;5.72;;;33.20;22.00;;;;;;5096195;28;20084;-64
2021/06/27 08:53:51;;;;;;;19.13;5.05;;;33.20;22.80;;;;;;5089970;28;20130;-63
2021/06/27 08:56:18;;;;;;;27.05;4.22;;;33.10;22.50;;;;;;5092342;28;20156;-63
2021/06/27 08:58:46;;;;;;;19.15;3.50;;;33.10;22.40;;;;;;5094983;28;20103;-64
2021/06/27 09:01:16;;;;;;;24.38;4.57;;;33.10;22.30;;;;;;5096136;28;20630;-64
2021/06/27 09:03:45;;;;;;;14.57;3.08;;;33.00;21.80;;;;;;5093548;28;20580;-64
2021/06/27 09:06:22;;;;;;;19.17;3.38;;;33.00;21.70;;;;;;5092858;28;20099;-63
2021/06/27 09:09:07;;;;;;;18.90;3.20;;;32.90;21.60;;;;;;5096153;28;20068;-63
2021/06/27 09:11:34;;;;;;;24.40;3.50;;;32.90;21.50;;;;;;5091962;28;20064;-63
2021/06/27 09:14:00;;;;;;;21.15;3.40;;;32.80;21.70;;;;;;5093151;28;20079;-63
2021/06/27 09:16:27;;;;;;;29.42;4.10;;;32.80;21.70;;;;;;5094283;28;20072;-65
2021/06/27 09:19:01;;;;;;;18.45;3.13;;;32.70;22.10;;;;;;5097158;28;20068;-64
2021/06/27 09:21:27;;;;;;;22.48;2.97;;;32.70;22.20;;;;;;5097072;28;20109;-62
2021/06/27 09:23:54;;;;;;;24.33;2.92;;;32.70;22.10;;;;;;5091100;28;20080;-63
2021/06/27 09:26:33;;;;;;;21.40;3.22;;;32.70;21.90;;;;;;5093653;28;20076;-62
2021/06/27 09:29:00;;;;;;;16.40;3.40;;;32.60;22.00;;;;;;5090869;28;20065;-64
2021/06/27 09:31:44;;;;;;;13.68;2.90;;;32.60;22.70;;;;;;5097467;28;20164;-63
2021/06/27 09:34:17;;;;;;;19.08;3.15;;;32.50;21.90;;;;;;5090078;28;20098;-65
2021/06/27 09:36:49;;;;;;;15.77;2.72;;;32.50;21.80;;;;;;5093826;28;20068;-64
2021/06/27 09:39:16;;;;;;;22.25;3.22;;;32.50;22.30;;;;;;5098508;28;20483;-63
2021/06/27 09:41:53;;;;;;;17.10;3.17;;;32.40;22.90;;;;;;5095540;28;20083;-64
2021/06/27 09:44:21;;;;;;;20.60;3.25;;;32.40;22.50;;;;;;5094410;28;20135;-63
2021/06/27 09:46:53;;;;;;;18.73;3.92;;;32.30;23.20;;;;;;5092334;28;20085;-62
2021/06/27 09:49:31;;;;;;;20.65;3.47;;;32.20;22.90;;;;;;5088358;28;20069;-62
2021/06/27 09:52:09;;;;;;;17.10;3.28;;;32.20;22.90;;;;;;5095154;28;20068;-63
2021/06/27 09:54:36;;;;;;;22.73;3.75;;;32.10;22.80;;;;;;5093448;28;20081;-62
2021/06/27 09:57:04;;;;;;;25.23;3.67;;;32.10;23.10;;;;;;5090449;28;20087;-63
2021/06/27 09:59:36;;;;;;;13.75;3.25;;;32.00;23.20;;;;;;5095737;28;20168;-63
2021/06/27 10:02:03;;;;;;;13.13;3.22;;;32.00;23.00;;;;;;5094856;28;20463;-65
2021/06/27 10:04:34;;;;;;;13.13;3.40;;;31.90;23.30;;;;;;5096655;28;20181;-63
2021/06/27 10:07:02;;;;;;;20.20;3.78;;;31.90;23.60;;;;;;5093330;28;20069;-63
2021/06/27 10:09:31;;;;;;;26.65;3.60;;;31.80;23.50;;;;;;5090651;28;20077;-64
2021/06/27 10:12:14;;;;;;;19.77;4.22;;;31.80;23.60;;;;;;5092442;28;20065;-64
2021/06/27 10:14:40;;;;;;;31.95;5.18;;;31.60;23.40;;;;;;5091830;28;20104;-63
2021/06/27 10:17:07;;;;;;;27.48;4.63;;;31.50;23.90;;;;;;5090017;28;20167;-63
2021/06/27 10:19:34;;;;;;;18.63;4.72;;;31.50;24.70;;;;;;5091359;28;20083;-63
2021/06/27 10:22:03;;;;;;;18.60;5.60;;;31.60;25.30;;;;;;5103919;27;20080;-64
2021/06/27 10:24:30;;;;;;;22.40;4.13;;;31.60;25.50;;;;;;5085025;28;20149;-64
2021/06/27 10:26:57;;;;;;;20.95;3.72;;;31.60;25.70;;;;;;5087130;28;20586;-64
2021/06/27 10:29:25;;;;;;;22.58;3.65;;;31.50;25.50;;;;;;5090499;28;20077;-62
2021/06/27 10:31:53;;;;;;;21.02;4.70;;;31.50;25.60;;;;;;5096092;28;21088;-63
2021/06/27 10:34:21;;;;;;;21.98;3.95;;;31.50;26.20;;;;;;5091456;28;20525;-63
2021/06/27 10:36:55;;;;;;;22.88;4.60;;;31.40;26.30;;;;;;5095404;28;20076;-63
2021/06/27 10:39:22;;;;;;;28.02;4.03;;;31.40;26.50;;;;;;5091119;28;20077;-62
2021/06/27 10:42:03;;;;;;;18.40;4.65;;;31.40;26.20;;;;;;5087936;28;20079;-62
2021/06/27 10:44:40;;;;;;;17.88;4.00;;;31.30;26.20;;;;;;5096283;28;20541;-64
2021/06/27 10:47:08;;;;;;;26.63;4.15;;;31.20;26.30;;;;;;5094522;28;20079;-64
2021/06/27 10:49:35;;;;;;;17.80;4.13;;;31.20;26.70;;;;;;5093089;28;20144;-64
2021/06/27 10:52:09;;;;;;;18.60;3.47;;;31.20;26.90;;;;;;5093007;28;20068;-63
2021/06/27 10:54:40;;;;;;;19.27;3.90;;;31.10;27.20;;;;;;5090511;28;20163;-63
2021/06/27 10:57:09;;;;;;;21.10;3.67;;;31.00;27.30;;;;;;5093444;28;20076;-64
2021/06/27 10:59:47;;;;;;;21.85;3.65;;;31.00;27.30;;;;;;5091220;28;20073;-63
2021/06/27 11:02:36;;;;;;;20.83;3.47;;;31.00;27.10;;;;;;5091661;28;20064;-64
2021/06/27 11:05:34;;;;;;;21.67;3.65;;;31.00;26.80;;;;;;5093148;28;20207;-61
2021/06/27 11:08:04;;;;;;;18.33;3.90;;;30.90;27.10;;;;;;5089914;28;20069;-63
2021/06/27 11:10:33;;;;;;;24.67;4.35;;;30.90;27.50;;;;;;5094246;28;20085;-63
2021/06/27 11:13:06;;;;;;;22.23;4.03;;;30.80;27.80;;;;;;5090671;28;20072;-63
2021/06/27 11:15:40;;;;;;;17.95;4.97;;;30.70;27.70;;;;;;5099655;28;20521;-64
2021/06/27 11:18:09;;;;;;;25.85;5.60;;;30.70;27.70;;;;;;5090115;28;20061;-63
2021/06/27 11:20:56;;;;;;;22.23;5.22;;;30.80;27.60;;;;;;5094624;28;20727;-63
2021/06/27 11:23:47;;;;;;;21.75;4.40;;;30.70;27.30;;;;;;5103532;28;20073;-64
2021/06/27 11:26:50;;;;;;;22.83;3.90;;;30.50;27.40;;;;;;5090487;28;20088;-64
2021/06/27 11:29:22;;;;;;;24.23;3.95;;;30.60;27.60;;;;;;5028297;28;20140;-62
2021/06/27 11:32:11;;;;;;;25.58;4.53;;;30.70;27.60;;;;;;5079706;28;20088;-63
2021/06/27 11:34:52;;;;;;;20.65;3.88;;;30.60;27.60;;;;;;5092965;28;20556;-63
2021/06/27 11:37:18;;;;;;;32.30;4.03;;;30.60;27.70;;;;;;5092427;28;20087;-64
2021/06/27 11:39:59;;;;;;;24.92;3.75;;;30.60;27.70;;;;;;5095251;28;20087;-64
2021/06/27 11:42:26;;;;;;;24.88;3.78;;;30.50;28.00;;;;;;5091379;28;20187;-63
2021/06/27 11:45:08;;;;;;;21.73;4.05;;;30.40;27.90;;;;;;5091423;28;20195;-62
2021/06/27 11:47:58;;;;;;;23.08;3.65;;;30.40;28.10;;;;;;5089199;28;20079;-63
2021/06/27 11:50:28;;;;;;;29.42;4.43;;;30.40;28.40;;;;;;5085929;28;20087;-63
2021/06/27 11:53:13;;;;;;;31.27;4.38;;;30.40;28.50;;;;;;5100636;28;20076;-64
2021/06/27 11:55:46;;;;;;;24.83;4.70;;;30.30;28.60;;;;;;5094397;28;20134;-63
2021/06/27 11:58:23;;;;;;;27.85;4.35;;;30.20;28.90;;;;;;5096020;28;20079;-62
2021/06/27 12:00:51;;;;;;;25.67;5.55;;;30.10;29.00;;;;;;5095521;28;20084;-62
2021/06/27 12:03:20;;;;;;;18.70;4.90;;;30.10;28.90;;;;;;5095995;28;20126;-63
2021/06/27 12:05:57;;;;;;;26.13;7.35;;;30.10;29.10;;;;;;5096030;28;20199;-64
2021/06/27 12:08:24;;;;;;;27.33;10.90;;;30.10;29.10;;;;;;5095888;28;20073;-64
2021/06/27 12:10:53;;;;;;;36.67;12.38;;;30.00;29.90;;;;;;5093143;28;20090;-63
2021/06/27 12:13:22;;;;;;;27.10;13.15;;;30.00;30.20;;;;;;5094701;28;20068;-63
2021/06/27 12:15:51;;;;;;;31.65;12.07;;;29.90;30.70;;;;;;5097817;28;20167;-62
2021/06/27 12:18:23;;;;;;;38.30;14.27;;;30.00;31.00;;;;;;5097477;28;20077;-61
2021/06/27 12:20:50;;;;;;;38.15;15.27;;;30.00;31.20;;;;;;5096061;28;20522;-63
2021/06/27 12:23:21;;;;;;;36.88;16.17;;;30.00;31.50;;;;;;5094043;28;20555;-62
2021/06/27 12:25:47;;;;;;;35.60;16.52;;;29.90;32.00;;;;;;5094851;28;20137;-63
2021/06/27 12:28:17;;;;;;;43.15;18.13;;;30.00;32.50;;;;;;5093426;28;20181;-63
2021/06/27 12:30:47;;;;;;;46.83;17.70;;;29.90;32.90;;;;;;5092181;28;20077;-63
2021/06/27 12:33:28;;;;;;;49.15;20.75;;;29.80;33.40;;;;;;5094765;28;20073;-63
2021/06/27 12:36:01;;;;;;;43.78;19.50;;;29.90;34.60;;;;;;5096189;28;20170;-64
2021/06/27 12:38:28;;;;;;;55.83;22.08;;;29.80;35.00;;;;;;5096011;28;20056;-64
2021/06/27 12:40:59;;;;;;;40.63;21.30;;;29.70;35.50;;;;;;5098464;28;20081;-62
2021/06/27 12:43:32;;;;;;;43.35;21.65;;;29.60;36.20;;;;;;5092573;28;20088;-63
2021/06/27 12:46:24;;;;;;;59.15;20.63;;;29.70;36.40;;;;;;5094906;28;20092;-62
2021/06/27 12:49:00;;;;;;;41.80;20.75;;;29.70;36.50;;;;;;5086821;28;20080;-62
2021/06/27 12:51:33;;;;;;;40.25;20.58;;;29.70;37.00;;;;;;5097333;28;20075;-62